createdAt,value
2022-12-09T00:01:16.257Z,3.98
2022-12-09T00:03:44.679Z,3.99
2022-12-09T00:06:24.070Z,3.96
2022-12-09T00:08:52.766Z,4.05
2022-12-09T00:11:21.513Z,3.91
2022-12-09T00:13:50.261Z,3.86
2022-12-09T00:16:18.225Z,3.91
2022-12-09T00:18:46.390Z,3.92
2022-12-09T00:21:24.643Z,3.93
2022-12-09T00:23:54.377Z,3.97
2022-12-09T00:26:23.573Z,4.05
2022-12-09T00:28:52.388Z,4.09
2022-12-09T00:31:24.577Z,4.07
2022-12-09T00:33:54.325Z,4.08
2022-12-09T00:36:24.218Z,4.00
2022-12-09T00:38:52.908Z,4.04
2022-12-09T00:41:21.615Z,3.99
2022-12-09T00:43:51.943Z,4.14
2022-12-09T00:46:20.221Z,4.10
2022-12-09T00:48:48.281Z,4.14
2022-12-09T00:51:19.608Z,3.99
2022-12-09T00:53:48.386Z,4.04
2022-12-09T00:56:16.467Z,4.07
2022-12-09T00:58:44.187Z,4.06
2022-12-09T01:01:12.000Z,3.96
2022-12-09T01:03:40.738Z,4.07
2022-12-09T01:06:13.303Z,4.14
2022-12-09T01:08:42.890Z,4.00
2022-12-09T01:11:17.462Z,3.93
2022-12-09T01:13:47.088Z,4.08
2022-12-09T01:16:20.499Z,4.01
2022-12-09T01:18:50.197Z,4.18
2022-12-09T01:21:18.356Z,4.20
2022-12-09T01:23:46.514Z,4.15
2022-12-09T01:26:14.242Z,4.04
2022-12-09T01:28:42.022Z,4.11
2022-12-09T01:31:12.577Z,4.13
2022-12-09T01:33:40.873Z,4.04
2022-12-09T01:36:10.771Z,4.05
2022-12-09T01:38:39.071Z,4.17
2022-12-09T01:41:07.242Z,4.08
2022-12-09T01:43:35.239Z,4.07
2022-12-09T01:46:03.486Z,3.95
2022-12-09T01:48:35.112Z,4.00
2022-12-09T01:51:17.639Z,4.11
2022-12-09T01:53:47.275Z,4.13
2022-12-09T01:56:29.322Z,3.92
2022-12-09T01:59:03.615Z,4.10
2022-12-09T02:01:32.070Z,4.09
2022-12-09T02:04:01.114Z,4.05
2022-12-09T02:06:30.335Z,3.98
2022-12-09T02:08:59.984Z,3.93
2022-12-09T02:12:07.325Z,4.04
2022-12-09T02:15:07.541Z,4.04
2022-12-09T02:18:03.061Z,4.01
2022-12-09T02:20:33.880Z,3.94
2022-12-09T02:23:23.003Z,3.86
2022-12-09T02:26:09.017Z,3.80
2022-12-09T02:29:05.679Z,3.75
2022-12-09T02:31:51.808Z,3.86
2022-12-09T02:34:23.475Z,3.68
2022-12-09T02:37:20.394Z,3.58
2022-12-09T02:40:07.320Z,3.67
2022-12-09T02:42:41.253Z,3.65
2022-12-09T02:45:11.855Z,3.80
2022-12-09T02:47:49.061Z,3.76
2022-12-09T02:50:21.659Z,3.82
2022-12-09T02:52:52.748Z,3.76
2022-12-09T02:55:22.350Z,3.75
2022-12-09T02:57:56.255Z,3.67
2022-12-09T03:00:24.422Z,3.34
2022-12-09T03:02:56.354Z,3.13
2022-12-09T03:05:52.742Z,3.48
2022-12-09T03:08:45.875Z,3.35
2022-12-09T03:11:19.552Z,3.43
2022-12-09T03:14:00.166Z,3.47
2022-12-09T03:16:36.002Z,3.61
2022-12-09T03:19:18.006Z,3.67
2022-12-09T03:21:48.068Z,3.62
2022-12-09T03:24:23.194Z,3.64
2022-12-09T03:26:53.192Z,3.61
2022-12-09T03:29:26.103Z,3.61
2022-12-09T03:31:57.079Z,3.45
2022-12-09T03:34:31.075Z,3.42
2022-12-09T03:36:59.514Z,3.36
2022-12-09T03:39:31.486Z,3.45
2022-12-09T03:42:03.038Z,3.34
2022-12-09T03:44:40.811Z,3.27
2022-12-09T03:47:10.705Z,3.46
2022-12-09T03:49:40.391Z,3.36
2022-12-09T03:52:23.892Z,3.55
2022-12-09T03:54:58.892Z,3.44
2022-12-09T03:57:27.276Z,3.37
2022-12-09T03:59:59.494Z,3.31
2022-12-09T04:02:28.174Z,3.29
2022-12-09T04:04:56.221Z,3.48
2022-12-09T04:07:24.355Z,3.39
2022-12-09T04:09:52.393Z,3.19
2022-12-09T04:12:20.496Z,3.31
2022-12-09T04:14:48.471Z,3.33
2022-12-09T04:17:16.219Z,3.47
2022-12-09T04:19:44.017Z,3.50
2022-12-09T04:22:11.975Z,3.39
2022-12-09T04:24:39.945Z,3.30
2022-12-09T04:27:08.529Z,3.30
2022-12-09T04:29:36.481Z,3.32
2022-12-09T04:32:04.432Z,3.40
2022-12-09T04:34:34.148Z,3.59
2022-12-09T04:37:01.904Z,3.56
2022-12-09T04:39:29.682Z,3.54
2022-12-09T04:41:57.526Z,3.55
2022-12-09T04:44:25.351Z,3.63
2022-12-09T04:46:53.288Z,3.64
2022-12-09T04:49:21.227Z,3.62
2022-12-09T04:51:49.107Z,3.67
2022-12-09T04:54:17.826Z,3.59
2022-12-09T04:56:45.663Z,3.57
2022-12-09T04:59:14.732Z,3.70
2022-12-09T05:01:42.956Z,3.67
2022-12-09T05:04:11.289Z,3.53
2022-12-09T05:06:39.568Z,3.68
2022-12-09T05:09:12.415Z,3.61
2022-12-09T05:11:41.010Z,3.61
2022-12-09T05:14:09.044Z,3.58
2022-12-09T05:16:37.244Z,3.57
2022-12-09T05:19:05.416Z,3.45
2022-12-09T05:21:33.554Z,3.49
2022-12-09T05:24:03.839Z,3.52
2022-12-09T05:26:31.817Z,3.52
2022-12-09T05:28:59.612Z,3.53
2022-12-09T05:31:27.629Z,3.50
2022-12-09T05:33:55.609Z,3.57
2022-12-09T05:36:27.796Z,3.45
2022-12-09T05:38:56.506Z,3.40
2022-12-09T05:41:25.340Z,3.59
2022-12-09T05:43:53.377Z,3.51
2022-12-09T05:46:21.884Z,3.45
2022-12-09T05:48:50.745Z,3.40
2022-12-09T05:51:27.352Z,3.53
2022-12-09T05:53:56.710Z,3.64
2022-12-09T05:56:26.048Z,3.57
2022-12-09T05:58:55.627Z,3.67
2022-12-09T06:01:24.481Z,3.58
2022-12-09T06:03:54.177Z,3.54
2022-12-09T06:06:26.514Z,3.67
2022-12-09T06:08:59.685Z,3.60
2022-12-09T06:11:28.850Z,3.58
2022-12-09T06:13:57.096Z,3.55
2022-12-09T06:16:26.048Z,3.61
2022-12-09T06:18:54.344Z,3.52
2022-12-09T06:21:22.962Z,3.58
2022-12-09T06:23:51.557Z,3.49
2022-12-09T06:26:26.041Z,3.58
2022-12-09T06:28:55.446Z,3.37
2022-12-09T06:31:24.007Z,3.34
2022-12-09T06:33:55.267Z,3.42
2022-12-09T06:36:24.244Z,3.62
2022-12-09T06:38:52.614Z,3.49
2022-12-09T06:41:20.673Z,3.49
2022-12-09T06:43:48.790Z,3.50
2022-12-09T06:46:23.830Z,3.50
2022-12-09T06:48:52.910Z,3.58
2022-12-09T06:51:22.215Z,3.56
2022-12-09T06:53:50.099Z,3.48
2022-12-09T06:56:18.310Z,3.47
2022-12-09T06:58:47.572Z,3.54
2022-12-09T07:01:23.808Z,3.72
2022-12-09T07:03:57.547Z,3.74
2022-12-09T07:06:33.017Z,3.69
2022-12-09T07:09:05.414Z,3.68
2022-12-09T07:11:33.619Z,3.76
2022-12-09T07:14:02.158Z,3.79
2022-12-09T07:16:30.323Z,3.70
2022-12-09T07:18:58.540Z,3.68
2022-12-09T07:21:26.953Z,3.78
2022-12-09T07:23:55.535Z,3.81
2022-12-09T07:26:23.722Z,3.84
2022-12-09T07:28:52.038Z,3.87
2022-12-09T07:31:27.836Z,3.76
2022-12-09T07:33:58.119Z,3.85
2022-12-09T07:36:30.253Z,3.88
2022-12-09T07:39:02.354Z,3.83
2022-12-09T07:41:30.979Z,3.80
2022-12-09T07:43:59.212Z,3.85
2022-12-09T07:46:27.514Z,3.91
2022-12-09T07:48:57.349Z,3.84
2022-12-09T07:51:25.976Z,3.96
2022-12-09T07:53:54.824Z,4.12
2022-12-09T07:56:24.037Z,4.10
2022-12-09T07:58:53.689Z,3.95
2022-12-09T08:01:28.474Z,4.00
2022-12-09T08:03:57.273Z,4.00
2022-12-09T08:06:28.783Z,4.03
2022-12-09T08:09:01.818Z,4.02
2022-12-09T08:11:32.334Z,4.10
2022-12-09T08:14:08.859Z,4.20
2022-12-09T08:16:39.342Z,4.36
2022-12-09T08:19:07.329Z,4.19
2022-12-09T08:21:35.985Z,4.18
2022-12-09T08:24:07.845Z,4.21
2022-12-09T08:26:37.610Z,4.26
2022-12-09T08:29:12.214Z,4.09
2022-12-09T08:31:42.733Z,4.22
2022-12-09T08:34:11.973Z,4.37
2022-12-09T08:36:40.776Z,4.43
2022-12-09T08:39:09.322Z,4.36
2022-12-09T08:41:39.389Z,4.37
2022-12-09T08:44:12.149Z,4.41
2022-12-09T08:46:42.736Z,4.43
2022-12-09T08:49:11.794Z,4.30
2022-12-09T08:51:39.925Z,4.34
2022-12-09T08:54:07.898Z,4.30
2022-12-09T08:56:36.070Z,4.28
2022-12-09T08:59:04.784Z,4.47
2022-12-09T09:01:35.852Z,4.28
2022-12-09T09:04:10.581Z,4.42
2022-12-09T09:06:41.774Z,4.25
2022-12-09T09:09:12.536Z,4.39
2022-12-09T09:11:42.216Z,4.37
2022-12-09T09:14:12.472Z,4.34
2022-12-09T09:16:43.349Z,4.33
2022-12-09T09:19:19.548Z,4.37
2022-12-09T09:21:47.942Z,4.25
2022-12-09T09:24:19.220Z,4.44
2022-12-09T09:26:48.496Z,4.38
2022-12-09T09:29:18.961Z,4.35
2022-12-09T09:31:48.630Z,4.37
2022-12-09T09:34:19.169Z,4.32
2022-12-09T09:36:47.603Z,4.22
2022-12-09T09:39:16.018Z,4.39
2022-12-09T09:41:51.686Z,4.35
2022-12-09T09:44:24.892Z,4.36
2022-12-09T09:46:54.515Z,4.41
2022-12-09T09:49:31.816Z,4.45
2022-12-09T09:52:04.548Z,4.41
2022-12-09T09:54:33.054Z,4.35
2022-12-09T09:57:07.220Z,4.38
2022-12-09T09:59:54.076Z,4.40
2022-12-09T10:02:51.897Z,4.33
2022-12-09T10:05:56.426Z,4.44
2022-12-09T10:08:39.953Z,4.38
2022-12-09T10:11:29.918Z,4.43
2022-12-09T10:14:56.253Z,4.56
2022-12-09T10:17:45.122Z,4.51
2022-12-09T10:20:21.276Z,4.53
2022-12-09T10:22:54.957Z,4.43
2022-12-09T10:25:29.626Z,4.49
2022-12-09T10:28:23.931Z,4.47
2022-12-09T10:30:54.401Z,4.47
2022-12-09T10:33:31.466Z,4.48
2022-12-09T10:36:00.098Z,4.36
2022-12-09T10:38:30.941Z,4.35
2022-12-09T10:41:13.972Z,4.48
2022-12-09T10:43:42.502Z,4.47
2022-12-09T10:46:19.638Z,4.53
2022-12-09T10:48:49.283Z,4.47
2022-12-09T10:51:36.716Z,4.40
2022-12-09T10:54:21.679Z,4.36
2022-12-09T10:57:15.126Z,4.49
2022-12-09T10:59:56.772Z,4.43
2022-12-09T11:02:25.548Z,4.43
2022-12-09T11:04:53.605Z,4.20
2022-12-09T11:07:29.757Z,4.35
2022-12-09T11:09:57.676Z,4.30
2022-12-09T11:12:30.860Z,4.36
2022-12-09T11:15:26.380Z,4.32
2022-12-09T11:18:22.961Z,4.33
2022-12-09T11:21:03.127Z,4.25
2022-12-09T11:23:31.651Z,4.26
2022-12-09T11:26:02.546Z,4.21
2022-12-09T11:28:35.178Z,4.21
2022-12-09T11:31:35.289Z,4.27
2022-12-09T11:34:08.254Z,4.25
2022-12-09T11:36:42.336Z,4.32
2022-12-09T11:39:50.465Z,4.36
2022-12-09T11:42:23.067Z,4.35
2022-12-09T11:45:02.151Z,4.32
2022-12-09T11:47:50.360Z,4.30
2022-12-09T11:50:31.200Z,4.47
2022-12-09T11:53:12.442Z,4.39
2022-12-09T11:55:46.954Z,4.51
2022-12-09T11:58:26.431Z,4.29
2022-12-09T12:01:00.896Z,4.41
2022-12-09T12:04:00.645Z,4.27
2022-12-09T12:06:43.706Z,4.16
2022-12-09T12:09:18.141Z,3.84
2022-12-09T12:12:18.210Z,4.25
2022-12-09T12:14:47.131Z,4.32
2022-12-09T12:17:17.651Z,4.41
2022-12-09T12:19:49.294Z,4.46
2022-12-09T12:22:29.226Z,4.41
2022-12-09T12:25:18.329Z,4.52
2022-12-09T12:28:04.693Z,4.41
2022-12-09T12:30:51.109Z,4.51
2022-12-09T12:36:39.783Z,4.43
2022-12-09T12:39:14.667Z,4.36
2022-12-09T12:41:51.784Z,4.44
2022-12-09T12:44:39.915Z,4.43
2022-12-09T12:47:10.697Z,4.42
2022-12-09T12:49:47.699Z,4.44
2022-12-09T12:55:36.782Z,4.24
2022-12-09T12:58:20.328Z,4.20
2022-12-09T13:01:09.763Z,4.30
2022-12-09T13:03:48.084Z,4.41
2022-12-09T13:06:20.212Z,4.43
2022-12-09T13:09:02.859Z,4.45
2022-12-09T13:11:49.276Z,4.34
2022-12-09T13:14:23.420Z,4.32
2022-12-09T13:16:53.857Z,4.31
2022-12-09T13:19:40.841Z,4.34
2022-12-09T13:22:17.543Z,4.35
2022-12-09T13:24:59.958Z,4.32
2022-12-09T13:27:35.799Z,4.23
2022-12-09T13:30:14.479Z,4.30
2022-12-09T13:33:08.624Z,4.28
2022-12-09T13:35:46.978Z,4.38
2022-12-09T13:38:39.728Z,4.45
2022-12-09T13:41:52.274Z,4.33
2022-12-09T13:44:21.323Z,4.41
2022-12-09T13:46:49.050Z,4.42
2022-12-09T13:49:21.230Z,4.41
2022-12-09T13:51:52.524Z,4.28
2022-12-09T13:54:24.071Z,4.35
2022-12-09T13:57:32.222Z,4.29
2022-12-09T14:00:07.222Z,4.35
2022-12-09T14:02:38.163Z,4.33
2022-12-09T14:05:13.648Z,4.31
2022-12-09T14:07:48.541Z,4.39
2022-12-09T14:10:49.258Z,4.35
2022-12-09T14:13:36.688Z,4.38
2022-12-09T14:16:28.677Z,4.37
2022-12-09T14:18:57.851Z,4.35
2022-12-09T14:21:29.183Z,4.34
2022-12-09T14:24:09.386Z,4.22
2022-12-09T14:26:46.234Z,4.32
2022-12-09T14:29:39.840Z,4.30
2022-12-09T14:32:29.077Z,4.35
2022-12-09T14:35:11.793Z,4.37
2022-12-09T14:37:54.405Z,4.39
2022-12-09T14:40:39.617Z,4.39
2022-12-09T14:43:29.033Z,4.33
2022-12-09T14:46:01.459Z,4.29
2022-12-09T14:48:41.913Z,4.19
2022-12-09T14:51:19.918Z,4.21
2022-12-09T14:53:58.442Z,4.19
2022-12-09T14:56:28.055Z,4.24
2022-12-09T14:59:09.350Z,4.25
2022-12-09T15:01:57.171Z,4.29
2022-12-09T15:04:37.440Z,4.24
2022-12-09T15:07:21.533Z,4.25
2022-12-09T15:09:59.426Z,4.18
2022-12-09T15:12:37.351Z,4.23
2022-12-09T15:15:13.060Z,4.19
2022-12-09T15:17:51.678Z,4.12
2022-12-09T15:20:35.937Z,4.12
2022-12-09T15:23:18.822Z,4.13
2022-12-09T15:25:49.138Z,4.20
2022-12-09T15:28:25.926Z,4.29
2022-12-09T15:31:18.976Z,4.12
2022-12-09T15:33:55.736Z,4.23
2022-12-09T15:36:44.613Z,4.32
2022-12-09T15:39:20.938Z,4.23
2022-12-09T15:42:09.495Z,4.24
2022-12-09T15:44:50.085Z,4.30
2022-12-09T15:47:29.568Z,4.26
2022-12-09T15:50:15.094Z,4.34
2022-12-09T15:52:49.841Z,4.18
2022-12-09T15:55:21.520Z,4.19
2022-12-09T15:57:52.691Z,4.35
2022-12-09T16:00:21.039Z,4.30
2022-12-09T16:02:50.754Z,4.24
2022-12-09T16:05:25.156Z,4.28
2022-12-09T16:07:55.794Z,4.22
2022-12-09T16:10:26.817Z,4.26
2022-12-09T16:13:10.769Z,4.24
2022-12-09T16:15:53.678Z,4.32
2022-12-09T16:18:25.730Z,4.37
2022-12-09T16:21:27.735Z,4.37
2022-12-09T16:23:58.181Z,4.32
2022-12-09T16:26:32.116Z,4.33
2022-12-09T16:29:06.338Z,4.32
2022-12-09T16:31:34.770Z,4.32
2022-12-09T16:34:02.665Z,4.09
2022-12-09T16:36:32.882Z,4.20
2022-12-09T16:39:09.725Z,4.27
2022-12-09T16:41:52.616Z,4.22
2022-12-09T16:44:21.945Z,4.28
2022-12-09T16:46:49.769Z,4.19
2022-12-09T16:49:17.411Z,4.21
2022-12-09T16:51:45.216Z,4.17
2022-12-09T16:54:20.787Z,4.21
2022-12-09T16:56:49.444Z,4.25
2022-12-09T16:59:17.175Z,4.15
2022-12-09T17:01:45.136Z,4.22
2022-12-09T17:04:22.363Z,4.28
2022-12-09T17:06:50.308Z,4.18
2022-12-09T17:09:19.072Z,4.30
2022-12-09T17:11:49.069Z,4.30
2022-12-09T17:14:18.303Z,4.28
2022-12-09T17:16:46.255Z,4.32
2022-12-09T17:19:14.107Z,4.37
2022-12-09T17:21:41.919Z,4.38
2022-12-09T17:24:12.601Z,4.37
2022-12-09T17:26:40.443Z,4.35
2022-12-09T17:29:08.196Z,4.43
2022-12-09T17:31:35.942Z,4.32
2022-12-09T17:34:03.640Z,4.43
2022-12-09T17:36:31.383Z,4.41
2022-12-09T17:39:07.945Z,4.47
2022-12-09T17:41:35.687Z,4.48
2022-12-09T17:44:03.414Z,4.46
2022-12-09T17:46:31.206Z,4.53
2022-12-09T17:49:01.392Z,4.59
2022-12-09T17:51:35.662Z,4.57
2022-12-09T17:54:04.339Z,4.58
2022-12-09T17:56:32.127Z,4.52
2022-12-09T17:59:08.424Z,4.51
2022-12-09T18:01:37.314Z,4.51
2022-12-09T18:04:10.150Z,4.44
2022-12-09T18:06:46.567Z,4.56
2022-12-09T18:09:17.749Z,4.46
2022-12-09T18:11:45.954Z,4.50
2022-12-09T18:14:13.736Z,4.54
2022-12-09T18:16:41.560Z,4.52
2022-12-09T18:19:12.989Z,4.42
2022-12-09T18:21:40.728Z,4.49
2022-12-09T18:24:08.872Z,4.44
2022-12-09T18:26:41.721Z,4.57
2022-12-09T18:29:10.682Z,4.54
2022-12-09T18:31:39.095Z,4.57
2022-12-09T18:34:06.838Z,4.59
2022-12-09T18:36:34.692Z,4.53
2022-12-09T18:39:02.443Z,4.59
2022-12-09T18:41:31.797Z,4.58
2022-12-09T18:44:03.091Z,4.43
2022-12-09T18:46:37.414Z,4.47
2022-12-09T18:49:08.534Z,4.42
2022-12-09T18:51:36.900Z,4.38
2022-12-09T18:54:05.402Z,4.46
2022-12-09T18:56:34.250Z,4.49
2022-12-09T18:59:07.577Z,4.38
2022-12-09T19:01:41.166Z,4.35
2022-12-09T19:04:14.421Z,4.41
2022-12-09T19:06:44.704Z,4.44
2022-12-09T19:09:15.853Z,4.42
2022-12-09T19:11:44.967Z,4.11
2022-12-09T19:14:14.180Z,4.42
2022-12-09T19:16:43.108Z,4.56
2022-12-09T19:19:14.840Z,4.65
2022-12-09T19:21:43.254Z,4.61
2022-12-09T19:24:23.120Z,4.70
2022-12-09T19:26:53.211Z,4.73
2022-12-09T19:29:22.147Z,4.64
2022-12-09T19:31:52.136Z,4.66
2022-12-09T19:34:22.881Z,4.68
2022-12-09T19:36:53.076Z,4.74
2022-12-09T19:39:23.595Z,4.74
2022-12-09T19:41:51.704Z,4.75
2022-12-09T19:44:51.998Z,4.78
2022-12-09T19:47:10.370Z,4.85
2022-12-09T19:49:40.882Z,4.83
2022-12-09T19:52:08.647Z,4.84
2022-12-09T19:54:36.425Z,4.74
2022-12-09T19:57:04.267Z,4.71
2022-12-09T19:59:32.115Z,4.74
2022-12-09T20:02:00.056Z,4.31
2022-12-09T20:07:16.211Z,4.73
2022-12-09T20:09:44.112Z,4.74
2022-12-09T20:12:13.510Z,4.70
2022-12-09T20:14:41.416Z,4.65
2022-12-09T20:17:09.251Z,4.67
2022-12-09T20:19:37.032Z,4.71
2022-12-09T20:22:04.939Z,4.78
2022-12-09T20:24:32.580Z,4.73
2022-12-09T20:27:00.796Z,4.65
2022-12-09T20:29:33.885Z,4.62
2022-12-09T20:32:05.023Z,4.72
2022-12-09T20:34:32.722Z,4.78
2022-12-09T20:37:00.596Z,4.77
2022-12-09T20:39:28.270Z,4.75
2022-12-09T20:41:56.030Z,4.70
2022-12-09T20:44:24.277Z,4.78
2022-12-09T20:46:53.982Z,4.74
2022-12-09T20:49:26.663Z,4.68
2022-12-09T20:51:55.651Z,4.74
2022-12-09T20:54:23.796Z,4.78
2022-12-09T20:56:53.023Z,4.69
2022-12-09T20:59:20.712Z,4.82
2022-12-09T21:01:48.420Z,4.77
2022-12-09T21:04:16.895Z,4.84
2022-12-09T21:06:45.070Z,4.81
2022-12-09T21:09:17.600Z,4.77
2022-12-09T21:11:46.872Z,4.76
2022-12-09T21:14:18.138Z,4.81
2022-12-09T21:16:46.993Z,4.83
2022-12-09T21:19:17.454Z,4.82
2022-12-09T21:21:48.393Z,4.72
2022-12-09T21:24:16.910Z,4.78
2022-12-09T21:26:46.355Z,4.80
2022-12-09T21:29:15.192Z,4.82
2022-12-09T21:31:44.278Z,4.88
2022-12-09T21:34:12.211Z,4.88
2022-12-09T21:36:42.560Z,4.85
2022-12-09T21:39:13.284Z,4.84
2022-12-09T21:41:41.640Z,4.82
2022-12-09T21:44:11.000Z,4.77
2022-12-09T21:46:38.942Z,4.86
2022-12-09T21:49:07.881Z,4.85
2022-12-09T21:51:36.509Z,4.94
2022-12-09T21:54:05.279Z,4.92
2022-12-09T21:56:35.660Z,4.77
2022-12-09T21:59:05.146Z,4.93
2022-12-09T22:01:41.297Z,4.88
2022-12-09T22:04:12.535Z,4.91
2022-12-09T22:06:44.869Z,4.87
2022-12-09T22:09:13.448Z,4.88
2022-12-09T22:11:42.654Z,4.90
2022-12-09T22:14:11.413Z,4.93
2022-12-09T22:16:42.611Z,4.93
2022-12-09T22:19:14.775Z,5.00
2022-12-09T22:21:43.122Z,5.04
2022-12-09T22:24:12.914Z,5.04
2022-12-09T22:26:43.469Z,5.03
2022-12-09T22:29:13.564Z,4.97
2022-12-09T22:31:42.376Z,4.97
2022-12-09T22:34:14.033Z,4.95
2022-12-09T22:36:42.147Z,4.92
2022-12-09T22:39:14.330Z,4.87
2022-12-09T22:41:43.865Z,4.83
2022-12-09T22:44:14.560Z,4.91
2022-12-09T22:46:43.002Z,4.96
2022-12-09T22:49:13.132Z,4.94
2022-12-09T22:51:41.535Z,4.90
2022-12-09T22:54:10.531Z,4.93
2022-12-09T22:56:40.603Z,4.92
2022-12-09T22:59:08.510Z,4.83
2022-12-09T23:01:37.784Z,4.89
2022-12-09T23:04:07.178Z,4.86
2022-12-09T23:06:37.228Z,4.93
2022-12-09T23:09:06.927Z,4.97
2022-12-09T23:11:34.732Z,4.92
2022-12-09T23:14:02.450Z,4.84
2022-12-09T23:16:30.485Z,4.83
2022-12-09T23:18:59.759Z,4.79
2022-12-09T23:21:33.539Z,4.91
2022-12-09T23:24:03.442Z,4.96
2022-12-09T23:26:33.781Z,4.95
2022-12-09T23:29:02.790Z,4.78
2022-12-09T23:31:33.013Z,4.80
2022-12-09T23:34:02.108Z,4.85
2022-12-09T23:36:33.343Z,4.98
2022-12-09T23:39:02.635Z,4.93
2022-12-09T23:41:31.158Z,4.79
2022-12-09T23:43:58.926Z,4.86
2022-12-09T23:46:28.545Z,4.83
2022-12-09T23:48:57.069Z,4.74
2022-12-09T23:51:30.965Z,4.64
2022-12-09T23:54:01.862Z,4.82
2022-12-09T23:56:31.672Z,4.90
2022-12-09T23:59:05.744Z,4.79
